createdAt,value
2022-09-04T00:01:13.815Z,1.60
2022-09-04T00:03:46.783Z,1.20
2022-09-04T00:06:17.148Z,1.90
2022-09-04T00:09:02.491Z,0.80
2022-09-04T00:11:37.961Z,1.03
2022-09-04T00:14:08.940Z,1.00
2022-09-04T00:16:42.025Z,0.97
2022-09-04T00:19:16.048Z,1.10
2022-09-04T00:21:49.168Z,1.10
2022-09-04T00:24:18.436Z,0.90
2022-09-04T00:26:51.869Z,1.67
2022-09-04T00:29:24.074Z,0.90
2022-09-04T00:31:54.483Z,1.20
2022-09-04T00:34:40.033Z,0.80
2022-09-04T00:37:11.503Z,0.80
2022-09-04T00:39:45.764Z,0.80
2022-09-04T00:42:28.269Z,0.80
2022-09-04T00:45:07.080Z,1.10
2022-09-04T00:48:06.039Z,0.90
2022-09-04T00:50:48.621Z,1.30
2022-09-04T00:53:42.766Z,0.90
2022-09-04T00:56:34.391Z,1.03
2022-09-04T00:59:13.126Z,0.90
2022-09-04T01:01:40.021Z,1.77
2022-09-04T01:04:36.216Z,1.27
2022-09-04T01:07:34.727Z,0.90
2022-09-04T01:10:12.555Z,1.10
2022-09-04T01:12:48.503Z,1.00
2022-09-04T01:15:20.662Z,0.90
2022-09-04T01:17:57.353Z,1.20
2022-09-04T01:20:33.857Z,1.17
2022-09-04T01:23:36.378Z,1.13
2022-09-04T01:26:09.246Z,1.27
2022-09-04T01:28:46.422Z,1.67
2022-09-04T01:31:23.317Z,1.10
2022-09-04T01:33:59.283Z,1.20
2022-09-04T01:36:35.664Z,1.33
2022-09-04T01:39:02.903Z,0.90
2022-09-04T01:41:38.186Z,1.20
2022-09-04T01:44:07.541Z,1.40
2022-09-04T01:46:57.552Z,1.20
2022-09-04T01:49:31.083Z,1.40
2022-09-04T01:52:07.884Z,1.47
2022-09-04T01:54:48.980Z,1.17
2022-09-04T01:57:31.852Z,1.30
2022-09-04T02:00:06.247Z,1.00
2022-09-04T02:02:44.309Z,2.00
2022-09-04T02:05:20.192Z,1.10
2022-09-04T02:07:49.348Z,1.33
2022-09-04T02:10:28.571Z,1.20
2022-09-04T02:13:07.911Z,1.30
2022-09-04T02:15:40.908Z,1.03
2022-09-04T02:18:18.691Z,1.37
2022-09-04T02:20:52.340Z,1.30
2022-09-04T02:23:24.009Z,1.23
2022-09-04T02:25:56.968Z,1.30
2022-09-04T02:28:33.734Z,1.30
2022-09-04T02:31:07.595Z,1.60
2022-09-04T02:33:42.021Z,1.57
2022-09-04T02:36:17.386Z,1.40
2022-09-04T02:38:54.658Z,1.77
2022-09-04T02:41:30.262Z,1.30
2022-09-04T02:44:19.377Z,1.10
2022-09-04T02:46:57.564Z,1.30
2022-09-04T02:49:33.657Z,2.03
2022-09-04T02:52:10.431Z,1.30
2022-09-04T02:54:55.763Z,1.37
2022-09-04T02:57:32.794Z,1.40
2022-09-04T03:00:04.715Z,1.40
2022-09-04T03:02:35.673Z,1.23
2022-09-04T03:05:09.570Z,1.67
2022-09-04T03:07:40.902Z,1.03
2022-09-04T03:10:12.868Z,1.40
2022-09-04T03:12:42.175Z,2.10
2022-09-04T03:15:18.780Z,1.30
2022-09-04T03:17:53.722Z,1.53
2022-09-04T03:20:23.499Z,1.90
2022-09-04T03:22:55.468Z,1.47
2022-09-04T03:26:09.772Z,3.90
2022-09-04T03:28:45.853Z,1.40
2022-09-04T03:31:28.856Z,1.33
2022-09-04T03:34:12.062Z,1.33
2022-09-04T03:36:47.675Z,1.40
2022-09-04T03:39:23.304Z,1.47
2022-09-04T03:42:02.454Z,1.37
2022-09-04T03:44:42.090Z,1.23
2022-09-04T03:47:18.148Z,1.50
2022-09-04T03:49:57.456Z,1.50
2022-09-04T03:52:33.900Z,1.80
2022-09-04T03:55:17.314Z,1.30
2022-09-04T03:57:57.706Z,1.50
2022-09-04T04:00:24.398Z,1.33
2022-09-04T04:03:13.629Z,1.53
2022-09-04T04:05:48.223Z,1.40
2022-09-04T04:08:38.200Z,1.30
2022-09-04T04:11:21.907Z,1.30
2022-09-04T04:14:26.914Z,1.20
2022-09-04T04:17:05.599Z,1.30
2022-09-04T04:19:53.059Z,1.40
2022-09-04T04:22:39.853Z,1.23
2022-09-04T04:25:24.749Z,1.30
2022-09-04T04:28:02.923Z,1.00
2022-09-04T04:30:39.607Z,1.97
2022-09-04T04:33:25.922Z,1.50
2022-09-04T04:36:01.169Z,1.50
2022-09-04T04:38:38.919Z,1.60
2022-09-04T04:41:16.437Z,1.63
2022-09-04T04:43:59.353Z,1.60
2022-09-04T04:46:36.897Z,1.60
2022-09-04T04:49:39.908Z,1.60
2022-09-04T04:52:21.478Z,1.90
2022-09-04T04:55:02.612Z,1.70
2022-09-04T04:57:38.161Z,1.90
2022-09-04T05:00:11.179Z,1.83
2022-09-04T05:02:46.258Z,1.50
2022-09-04T05:05:19.927Z,2.13
2022-09-04T05:07:56.727Z,1.40
2022-09-04T05:10:29.721Z,1.57
2022-09-04T05:13:02.014Z,1.60
2022-09-04T05:15:40.663Z,1.50
2022-09-04T05:18:22.105Z,1.53
2022-09-04T05:20:56.235Z,1.40
2022-09-04T05:23:32.961Z,1.63
2022-09-04T05:26:10.844Z,1.50
2022-09-04T05:28:48.157Z,1.77
2022-09-04T05:31:22.115Z,1.60
2022-09-04T05:33:57.246Z,1.70
2022-09-04T05:36:30.630Z,1.70
2022-09-04T05:39:08.085Z,1.60
2022-09-04T05:41:45.023Z,1.60
2022-09-04T05:44:29.788Z,1.40
2022-09-04T05:47:09.333Z,1.60
2022-09-04T05:49:57.862Z,1.93
2022-09-04T05:52:46.859Z,1.50
2022-09-04T05:55:55.712Z,1.50
2022-09-04T05:58:39.006Z,1.63
2022-09-04T06:01:18.906Z,1.50
2022-09-04T06:04:12.867Z,1.70
2022-09-04T06:06:47.982Z,1.63
2022-09-04T06:09:28.109Z,1.40
2022-09-04T06:12:10.092Z,1.50
2022-09-04T06:15:25.555Z,2.30
2022-09-04T06:18:07.464Z,1.47
2022-09-04T06:20:57.521Z,1.33
2022-09-04T06:23:38.831Z,2.13
2022-09-04T06:26:41.009Z,1.93
2022-09-04T06:29:27.839Z,1.70
2022-09-04T06:32:07.970Z,1.93
2022-09-04T06:34:46.740Z,2.00
2022-09-04T06:37:25.324Z,2.27
2022-09-04T06:40:08.778Z,3.03
2022-09-04T06:42:47.715Z,2.53
2022-09-04T06:45:22.555Z,2.20
2022-09-04T06:48:05.023Z,2.27
2022-09-04T06:50:42.174Z,2.20
2022-09-04T06:53:18.292Z,2.00
2022-09-04T06:55:56.918Z,2.33
2022-09-04T06:58:48.995Z,2.20
2022-09-04T07:01:24.373Z,2.60
2022-09-04T07:04:03.895Z,2.43
2022-09-04T07:06:44.177Z,2.80
2022-09-04T07:09:17.438Z,2.43
2022-09-04T07:12:10.371Z,2.40
2022-09-04T07:15:12.201Z,1.73
2022-09-04T07:17:53.505Z,1.93
2022-09-04T07:20:25.135Z,1.73
2022-09-04T07:23:15.714Z,1.83
2022-09-04T07:25:46.864Z,1.97
2022-09-04T07:28:29.534Z,2.50
2022-09-04T07:31:02.151Z,2.80
2022-09-04T07:33:35.705Z,2.53
2022-09-04T07:36:08.128Z,3.43
2022-09-04T07:38:38.264Z,2.93
2022-09-04T07:41:09.857Z,2.83
2022-09-04T07:43:44.577Z,2.37
2022-09-04T07:46:17.685Z,2.80
2022-09-04T07:48:54.022Z,2.60
2022-09-04T07:51:23.573Z,2.93
2022-09-04T07:54:08.182Z,2.93
2022-09-04T07:56:50.598Z,2.30
2022-09-04T07:59:36.791Z,2.50
2022-09-04T08:02:23.079Z,2.30
2022-09-04T08:05:15.852Z,3.10
2022-09-04T08:08:08.426Z,2.17
2022-09-04T08:10:40.876Z,2.57
2022-09-04T08:13:22.216Z,2.40
2022-09-04T08:15:58.765Z,2.23
2022-09-04T08:18:40.966Z,2.90
2022-09-04T08:21:17.426Z,2.20
2022-09-04T08:24:31.720Z,2.60
2022-09-04T08:27:08.984Z,2.57
2022-09-04T08:29:50.581Z,2.37
2022-09-04T08:32:43.204Z,2.30
2022-09-04T08:35:20.236Z,2.57
2022-09-04T08:38:03.529Z,2.97
2022-09-04T08:41:07.979Z,1.87
2022-09-04T08:43:52.186Z,2.27
2022-09-04T08:46:49.350Z,2.40
2022-09-04T08:49:45.083Z,2.63
2022-09-04T08:52:44.393Z,2.70
2022-09-04T08:55:39.359Z,2.80
2022-09-04T08:58:48.551Z,2.57
2022-09-04T09:02:02.554Z,2.20
2022-09-04T09:05:00.844Z,2.17
2022-09-04T09:08:01.974Z,2.30
2022-09-04T09:11:00.112Z,1.93
2022-09-04T09:14:15.303Z,2.70
2022-09-04T09:16:47.914Z,2.47
2022-09-04T09:19:31.002Z,2.30
2022-09-04T09:22:08.540Z,2.30
2022-09-04T09:25:09.049Z,2.30
2022-09-04T09:28:07.691Z,2.03
2022-09-04T09:30:50.922Z,1.93
2022-09-04T09:34:00.760Z,1.70
2022-09-04T09:36:53.301Z,1.77
2022-09-04T09:39:50.518Z,2.23
2022-09-04T09:42:49.392Z,2.13
2022-09-04T09:45:28.029Z,1.63
2022-09-04T09:48:23.345Z,1.53
2022-09-04T09:51:37.753Z,1.73
2022-09-04T09:54:25.443Z,1.60
2022-09-04T09:57:33.197Z,2.10
2022-09-04T10:00:12.214Z,1.40
2022-09-04T10:03:03.940Z,1.30
2022-09-04T10:06:06.265Z,2.10
2022-09-04T10:08:58.236Z,1.27
2022-09-04T10:12:00.981Z,1.50
2022-09-04T10:14:53.405Z,2.60
2022-09-04T10:17:50.894Z,2.00
2022-09-04T10:20:35.859Z,1.63
2022-09-04T10:23:38.023Z,1.30
2022-09-04T10:26:29.359Z,1.33
2022-09-04T10:29:37.329Z,1.43
2022-09-04T10:32:28.074Z,2.10
2022-09-04T10:35:15.976Z,2.10
2022-09-04T10:37:56.777Z,1.60
2022-09-04T10:40:28.210Z,2.10
2022-09-04T10:43:12.944Z,2.07
2022-09-04T10:45:45.827Z,2.10
2022-09-04T10:48:45.247Z,2.43
2022-09-04T10:51:37.583Z,2.63
2022-09-04T10:54:31.606Z,2.43
2022-09-04T10:57:08.765Z,1.80
2022-09-04T11:00:06.980Z,2.23
2022-09-04T11:02:53.031Z,2.10
2022-09-04T11:05:31.363Z,2.20
2022-09-04T11:08:26.093Z,2.20
2022-09-04T11:11:06.604Z,2.70
2022-09-04T11:13:58.299Z,2.10
2022-09-04T11:16:40.842Z,3.43
2022-09-04T11:20:03.430Z,2.20
2022-09-04T11:23:14.320Z,2.63
2022-09-04T11:26:27.728Z,2.73
2022-09-04T11:29:24.266Z,2.27
2022-09-04T11:32:10.763Z,2.20
2022-09-04T11:35:14.618Z,2.17
2022-09-04T11:38:02.008Z,2.63
2022-09-04T11:40:57.908Z,2.17
2022-09-04T11:43:50.955Z,2.30
2022-09-04T11:46:47.402Z,2.63
2022-09-04T11:49:36.811Z,2.20
2022-09-04T11:52:15.682Z,2.10
2022-09-04T11:55:18.743Z,1.93
2022-09-04T11:57:58.387Z,2.20
2022-09-04T12:00:34.127Z,2.00
2022-09-04T12:03:30.462Z,2.30
2022-09-04T12:06:16.339Z,2.00
2022-09-04T12:09:15.457Z,2.63
2022-09-04T12:11:59.005Z,2.60
2022-09-04T12:14:58.219Z,2.10
2022-09-04T12:18:09.742Z,2.17
2022-09-04T12:20:58.689Z,1.90
2022-09-04T12:23:56.742Z,2.20
2022-09-04T12:26:51.983Z,2.30
2022-09-04T12:29:48.986Z,2.03
2022-09-04T12:32:40.129Z,2.07
2022-09-04T12:35:51.397Z,2.20
2022-09-04T12:38:44.755Z,1.80
2022-09-04T12:41:15.262Z,2.00
2022-09-04T12:43:56.202Z,3.13
2022-09-04T12:46:39.998Z,1.60
2022-09-04T12:49:36.166Z,1.70
2022-09-04T12:52:14.057Z,2.20
2022-09-04T12:54:46.848Z,1.47
2022-09-04T12:57:27.171Z,1.70
2022-09-04T13:00:03.299Z,1.53
2022-09-04T13:02:43.309Z,1.77
2022-09-04T13:05:30.055Z,1.60
2022-09-04T13:08:06.587Z,1.57
2022-09-04T13:10:41.232Z,1.63
2022-09-04T13:13:16.300Z,1.47
2022-09-04T13:15:51.254Z,2.70
2022-09-04T13:18:28.330Z,1.93
2022-09-04T13:21:04.042Z,2.30
2022-09-04T13:23:51.297Z,1.70
2022-09-04T13:26:43.100Z,1.40
2022-09-04T13:29:17.760Z,1.23
2022-09-04T13:31:58.606Z,1.30
2022-09-04T13:34:37.776Z,1.27
2022-09-04T13:37:10.975Z,1.40
2022-09-04T13:40:10.907Z,1.20
2022-09-04T13:43:04.712Z,1.30
2022-09-04T13:45:34.622Z,1.50
2022-09-04T13:48:06.109Z,1.23
2022-09-04T13:50:37.040Z,1.10
2022-09-04T13:53:09.493Z,1.27
2022-09-04T13:55:39.375Z,1.53
2022-09-04T13:58:12.862Z,1.77
2022-09-04T14:00:44.421Z,1.77
2022-09-04T14:03:14.547Z,1.73
2022-09-04T14:05:41.224Z,1.20
2022-09-04T14:08:14.535Z,1.30
2022-09-04T14:11:03.064Z,1.10
2022-09-04T14:13:45.414Z,1.30
2022-09-04T14:16:13.274Z,1.30
2022-09-04T14:18:55.302Z,1.10
2022-09-04T14:21:32.974Z,2.00
2022-09-04T14:24:06.513Z,1.30
2022-09-04T14:26:48.628Z,1.57
2022-09-04T14:29:22.600Z,1.03
2022-09-04T14:31:59.788Z,1.40
2022-09-04T14:34:37.383Z,1.20
2022-09-04T14:37:13.957Z,1.13
2022-09-04T14:39:47.812Z,0.90
2022-09-04T14:42:32.834Z,1.60
2022-09-04T14:45:12.902Z,1.37
2022-09-04T14:47:43.559Z,1.43
2022-09-04T14:50:12.368Z,0.80
2022-09-04T14:52:41.822Z,0.90
2022-09-04T14:55:15.245Z,0.93
2022-09-04T14:57:48.954Z,1.07
2022-09-04T15:00:17.552Z,1.20
2022-09-04T15:02:50.307Z,1.53
2022-09-04T15:05:22.125Z,1.30
2022-09-04T15:07:53.322Z,0.97
2022-09-04T15:10:25.177Z,1.10
2022-09-04T15:13:03.656Z,1.47
2022-09-04T15:15:34.779Z,1.40
2022-09-04T15:18:10.918Z,0.97
2022-09-04T15:20:45.379Z,1.10
2022-09-04T15:23:19.648Z,1.20
2022-09-04T15:26:05.285Z,1.20
2022-09-04T15:28:40.648Z,1.33
2022-09-04T15:31:16.439Z,1.30
2022-09-04T15:33:46.337Z,1.67
2022-09-04T15:36:16.511Z,1.87
2022-09-04T15:38:50.761Z,1.50
2022-09-04T15:41:23.533Z,1.20
2022-09-04T15:43:55.441Z,0.77
2022-09-04T15:46:27.473Z,0.97
2022-09-04T15:49:03.611Z,1.30
2022-09-04T15:51:40.253Z,0.90
2022-09-04T15:54:15.135Z,1.23
2022-09-04T15:56:48.206Z,1.10
2022-09-04T15:59:19.914Z,1.00
2022-09-04T16:01:52.110Z,0.90
2022-09-04T16:04:31.969Z,1.00
2022-09-04T16:07:14.810Z,0.93
2022-09-04T16:09:46.869Z,0.60
2022-09-04T16:12:17.737Z,0.90
2022-09-04T16:14:49.466Z,0.80
2022-09-04T16:17:20.436Z,0.70
2022-09-04T16:19:54.805Z,1.10
2022-09-04T16:22:29.494Z,0.77
2022-09-04T16:25:07.215Z,1.20
2022-09-04T16:27:44.082Z,1.10
2022-09-04T16:30:25.855Z,1.10
2022-09-04T16:32:52.472Z,0.80
2022-09-04T16:35:21.429Z,0.80
2022-09-04T16:37:52.014Z,0.87
2022-09-04T16:40:26.922Z,1.00
2022-09-04T16:43:00.681Z,0.80
2022-09-04T16:45:33.945Z,0.93
2022-09-04T16:48:33.503Z,0.87
2022-09-04T16:50:56.056Z,2.17
2022-09-04T16:53:35.492Z,0.70
2022-09-04T16:56:04.458Z,0.80
2022-09-04T16:58:37.004Z,0.80
2022-09-04T17:01:14.228Z,0.80
2022-09-04T17:03:47.430Z,0.67
2022-09-04T17:06:23.380Z,0.70
2022-09-04T17:08:58.176Z,1.10
2022-09-04T17:11:33.419Z,0.80
2022-09-04T17:14:10.769Z,0.87
2022-09-04T17:16:50.586Z,0.70
2022-09-04T17:19:17.209Z,0.70
2022-09-04T17:26:34.642Z,1.17
2022-09-04T17:28:58.849Z,0.73
2022-09-04T17:29:19.623Z,0.77
2022-09-04T17:30:45.559Z,0.80
2022-09-04T17:39:06.252Z,0.90
2022-09-04T17:40:36.880Z,0.70
2022-09-04T17:40:47.640Z,0.93
2022-09-04T17:42:08.746Z,1.70
2022-09-04T17:44:44.541Z,0.93
2022-09-04T17:47:20.569Z,1.00
2022-09-04T17:49:50.651Z,1.40
2022-09-04T17:52:25.766Z,0.70
2022-09-04T17:54:56.413Z,0.70
2022-09-04T17:57:31.266Z,0.70
2022-09-04T18:00:03.780Z,0.67
2022-09-04T18:02:39.245Z,0.90
2022-09-04T18:05:18.004Z,2.10
2022-09-04T18:08:09.945Z,0.60
2022-09-04T18:10:49.053Z,2.27
2022-09-04T18:13:36.842Z,1.00
2022-09-04T18:16:12.460Z,0.93
2022-09-04T18:18:43.264Z,1.03
2022-09-04T18:21:19.156Z,1.07
2022-09-04T18:23:57.357Z,1.10
2022-09-04T18:26:39.989Z,1.10
2022-09-04T18:30:57.260Z,1.13
2022-09-04T18:37:06.585Z,1.07
2022-09-04T18:37:27.099Z,1.07
2022-09-04T18:38:09.390Z,1.20
2022-09-04T18:44:27.152Z,1.20
2022-09-04T18:50:31.621Z,1.10
2022-09-04T18:50:44.666Z,1.10
2022-09-04T18:51:03.248Z,0.87
2022-09-04T18:52:03.096Z,0.93
2022-09-04T18:54:36.140Z,1.03
2022-09-04T18:57:12.672Z,0.97
2022-09-04T18:59:44.407Z,1.00
2022-09-04T19:02:15.912Z,1.00
2022-09-04T19:04:47.880Z,0.90
2022-09-04T19:07:26.475Z,0.97
2022-09-04T19:10:04.350Z,1.17
2022-09-04T19:12:47.146Z,0.90
2022-09-04T19:15:45.493Z,2.00
2022-09-04T19:18:22.124Z,1.00
2022-09-04T19:20:52.890Z,1.20
2022-09-04T19:23:27.918Z,1.30
2022-09-04T19:26:01.916Z,1.23
2022-09-04T19:28:42.520Z,1.23
2022-09-04T19:31:29.947Z,1.30
2022-09-04T19:33:59.715Z,1.20
2022-09-04T19:36:38.317Z,1.30
2022-09-04T19:45:54.699Z,2.47
2022-09-04T19:46:06.659Z,1.70
2022-09-04T19:46:13.203Z,1.20
2022-09-04T19:48:04.399Z,1.10
2022-09-04T19:53:20.411Z,0.80
2022-09-04T19:53:40.536Z,1.30
2022-09-04T19:56:19.883Z,1.50
2022-09-04T19:58:53.199Z,1.20
2022-09-04T20:01:24.677Z,1.10
2022-09-04T20:03:56.598Z,1.20
2022-09-04T20:06:27.823Z,1.93
2022-09-04T20:09:00.279Z,1.00
2022-09-04T20:11:36.001Z,1.43
2022-09-04T20:14:14.894Z,1.30
2022-09-04T20:16:53.976Z,1.30
2022-09-04T20:19:27.943Z,2.23
2022-09-04T20:21:59.759Z,2.43
2022-09-04T20:24:32.752Z,1.30
2022-09-04T20:27:05.051Z,0.90
2022-09-04T20:29:37.608Z,1.13
2022-09-04T20:32:11.203Z,1.70
2022-09-04T20:34:43.682Z,1.30
2022-09-04T20:37:33.027Z,1.17
2022-09-04T20:40:09.866Z,1.43
2022-09-04T20:42:42.928Z,1.40
2022-09-04T20:48:04.994Z,2.43
2022-09-04T20:52:56.430Z,1.30
2022-09-04T20:52:58.240Z,1.90
2022-09-04T20:54:29.172Z,1.50
2022-09-04T20:59:15.206Z,1.43
2022-09-04T21:03:08.212Z,1.30
2022-09-04T21:03:24.845Z,1.87
2022-09-04T21:06:06.922Z,2.00
2022-09-04T21:08:40.252Z,1.40
2022-09-04T21:11:19.143Z,1.30
2022-09-04T21:14:00.947Z,1.17
2022-09-04T21:16:35.260Z,0.97
2022-09-04T21:19:29.687Z,1.40
2022-09-04T21:22:32.654Z,1.53
2022-09-04T21:25:30.037Z,1.40
2022-09-04T21:28:23.762Z,2.20
2022-09-04T21:31:02.895Z,3.13
2022-09-04T21:33:36.566Z,2.20
2022-09-04T21:36:26.973Z,1.67
2022-09-04T21:39:16.310Z,1.70
2022-09-04T21:42:01.613Z,1.60
2022-09-04T21:45:12.906Z,1.40
2022-09-04T21:48:18.410Z,3.03
2022-09-04T21:50:58.870Z,1.53
2022-09-04T21:53:53.587Z,1.30
2022-09-04T22:02:27.318Z,1.67
2022-09-04T22:02:35.467Z,1.80
2022-09-04T22:03:13.216Z,1.20
2022-09-04T22:05:47.617Z,1.43
2022-09-04T22:13:26.873Z,1.40
2022-09-04T22:13:39.071Z,1.20
2022-09-04T22:14:24.580Z,1.50
2022-09-04T22:17:22.386Z,1.40
2022-09-04T22:20:13.134Z,1.50
2022-09-04T22:22:58.360Z,1.37
2022-09-04T22:25:43.483Z,1.30
2022-09-04T22:28:45.200Z,1.53
2022-09-04T22:31:59.115Z,1.30
2022-09-04T22:34:53.808Z,1.40
2022-09-04T22:37:53.820Z,1.40
2022-09-04T22:40:56.360Z,1.30
2022-09-04T22:43:25.413Z,1.20
2022-09-04T22:46:29.824Z,1.30
2022-09-04T22:49:23.973Z,1.53
2022-09-04T22:52:12.963Z,1.50
2022-09-04T22:54:57.254Z,1.43
2022-09-04T22:57:44.721Z,1.40
2022-09-04T23:00:14.693Z,1.30
2022-09-04T23:03:08.139Z,1.30
2022-09-04T23:08:13.586Z,1.60
2022-09-04T23:13:49.326Z,3.07
2022-09-04T23:13:51.041Z,3.63
2022-09-04T23:15:24.416Z,2.07
2022-09-04T23:24:10.090Z,2.43
2022-09-04T23:26:37.638Z,1.63
2022-09-04T23:26:42.365Z,1.93
2022-09-04T23:27:29.111Z,1.50
2022-09-04T23:30:13.087Z,1.67
2022-09-04T23:33:28.065Z,2.53
2022-09-04T23:36:02.577Z,1.80
2022-09-04T23:39:17.288Z,1.60
2022-09-04T23:41:59.326Z,2.03
2022-09-04T23:44:58.645Z,1.40
2022-09-04T23:47:48.283Z,1.20
2022-09-04T23:50:24.690Z,1.40
2022-09-04T23:53:04.076Z,1.40
2022-09-04T23:55:49.919Z,1.30
2022-09-04T23:58:34.551Z,1.07
